Arvin, California
Current Conditions -  °F | °C
As of 1:54 PM on Tuesday 21 Oct 2014 (Local Time) from KBFL Reporting Station
Clear Clear  
Wind Chill: 70°   Ceiling: Unl
Heat Index: 70°   Visibility: 10mi
Dew Point: 46°   Wind: 6mph
Humidity: 42%   Direction: NA
Pressure: 30.01"   Gusts: NA
Location:  35.21°N, 118.82°W
Report Text: KBFL 212054Z VRB05KT 10SM CLR 21/08 A3001 RMK AO2 SLP157 T02110078 57027
Loading
Personal Weather Stations






























Interactive Weather Map New forecast layout! Learn more

10-Day Weather Forecast

Advertisements
Track Severe Weather on mobile